Time;durP1;ratioP1;P1;durP2;ratioP2;P2;SDS_P1;SDS_P2;PMS_P1;PMS_P2;Temp;Humidity;BMP_temperature;BMP_pressure;BME280_temperature;BME280_humidity;BME280_pressure;Samples;Min_cycle;Max_cycle;Signal;HPM_P1;HPM_P2
2022/12/21 00:01:14;;;;;;;14.20;8.80;;;4.10;99.90;;;;;;6180894;23;20515;-71
2022/12/21 00:03:41;;;;;;;10.10;7.87;;;4.10;99.90;;;;;;6180209;23;20892;-72
2022/12/21 00:06:08;;;;;;;11.67;7.87;;;4.10;99.90;;;;;;6180278;23;20430;-73
2022/12/21 00:08:36;;;;;;;11.80;7.43;;;4.10;99.90;;;;;;6179937;23;20407;-74
2022/12/21 00:11:03;;;;;;;11.07;8.67;;;4.20;99.90;;;;;;6179998;23;20416;-74
2022/12/21 00:13:31;;;;;;;12.70;9.20;;;4.10;99.90;;;;;;6179600;23;20912;-74
2022/12/21 00:15:59;;;;;;;11.13;8.70;;;4.10;99.90;;;;;;6180091;23;20404;-73
2022/12/21 00:18:27;;;;;;;13.33;8.40;;;4.10;99.90;;;;;;6179676;23;20443;-73
2022/12/21 00:20:59;;;;;;;11.57;8.00;;;4.10;99.90;;;;;;6179575;23;20414;-73
2022/12/21 00:23:26;;;;;;;8.97;7.23;;;4.00;99.90;;;;;;6179709;23;20906;-72
2022/12/21 00:25:52;;;;;;;18.13;9.60;;;4.00;99.90;;;;;;6180012;23;20403;-73
2022/12/21 00:28:19;;;;;;;18.90;8.40;;;4.00;99.90;;;;;;6181020;23;20432;-72
2022/12/21 00:30:46;;;;;;;10.27;6.60;;;4.00;99.90;;;;;;6181490;23;20404;-74
2022/12/21 00:33:13;;;;;;;13.67;7.10;;;4.00;99.90;;;;;;6181876;23;20408;-72
2022/12/21 00:35:41;;;;;;;9.43;6.93;;;4.10;99.90;;;;;;6181353;23;20410;-74
2022/12/21 00:38:08;;;;;;;9.17;7.30;;;4.10;99.90;;;;;;6181866;23;20443;-73
2022/12/21 00:40:34;;;;;;;12.47;7.40;;;4.10;99.90;;;;;;6181643;23;20434;-72
2022/12/21 00:43:01;;;;;;;13.00;7.40;;;4.10;99.90;;;;;;6181783;23;20412;-73
2022/12/21 00:45:28;;;;;;;13.73;8.80;;;4.10;99.90;;;;;;6181578;23;20407;-73
2022/12/21 00:47:55;;;;;;;8.67;7.63;;;4.10;99.90;;;;;;6181524;23;20736;-72
2022/12/21 00:50:21;;;;;;;7.57;6.77;;;4.00;99.90;;;;;;6180082;23;20421;-73
2022/12/21 00:52:49;;;;;;;9.20;6.63;;;4.00;99.90;;;;;;6180901;23;20428;-72
2022/12/21 00:55:16;;;;;;;6.60;6.00;;;4.20;99.90;;;;;;6181435;23;20408;-73
2022/12/21 00:57:43;;;;;;;7.90;6.40;;;4.30;99.90;;;;;;6180911;23;20924;-72
2022/12/21 01:00:11;;;;;;;10.03;5.40;;;4.50;99.90;;;;;;6181519;23;20414;-74
2022/12/21 01:02:38;;;;;;;6.43;5.80;;;4.70;99.90;;;;;;6180044;23;20408;-72
2022/12/21 01:05:05;;;;;;;7.97;5.10;;;4.70;99.90;;;;;;6179228;23;20711;-73
2022/12/21 01:07:32;;;;;;;11.47;6.00;;;4.90;99.90;;;;;;6180124;23;20400;-73
2022/12/21 01:10:00;;;;;;;7.23;5.10;;;4.80;99.90;;;;;;6180829;23;20428;-73
2022/12/21 01:12:27;;;;;;;6.30;5.50;;;4.90;99.90;;;;;;6181215;23;20412;-73
2022/12/21 01:14:53;;;;;;;6.93;5.50;;;5.10;99.90;;;;;;6181304;23;20408;-74
2022/12/21 01:17:20;;;;;;;7.20;5.40;;;5.10;99.90;;;;;;6180453;23;20404;-73
2022/12/21 01:19:49;;;;;;;9.00;5.17;;;5.00;99.90;;;;;;6180721;23;20987;-73
2022/12/21 01:22:16;;;;;;;6.80;4.10;;;4.90;99.90;;;;;;6181323;23;20459;-73
2022/12/21 01:24:43;;;;;;;6.70;4.90;;;4.90;99.90;;;;;;6181056;23;20763;-72
2022/12/21 01:27:11;;;;;;;6.30;5.00;;;5.20;99.90;;;;;;6181050;23;20404;-72
2022/12/21 01:29:38;;;;;;;4.30;3.90;;;5.20;99.90;;;;;;6180550;23;20897;-73
2022/12/21 01:32:05;;;;;;;7.63;3.93;;;5.50;99.90;;;;;;6179971;23;20404;-73
2022/12/21 01:34:32;;;;;;;5.73;3.80;;;5.50;99.90;;;;;;6181551;23;20404;-72
2022/12/21 01:36:58;;;;;;;5.70;4.07;;;5.60;99.90;;;;;;6181133;23;20410;-72
2022/12/21 01:39:25;;;;;;;6.93;5.03;;;5.50;99.90;;;;;;6180738;23;20478;-72
2022/12/21 01:41:53;;;;;;;5.50;4.93;;;5.30;99.90;;;;;;6181080;23;20403;-72
2022/12/21 01:44:54;;;;;;;4.93;4.37;;;5.30;99.90;;;;;;6181506;23;20408;-73
2022/12/21 01:47:26;;;;;;;5.57;4.50;;;5.40;99.90;;;;;;6181205;23;20388;-72
2022/12/21 01:49:58;;;;;;;8.93;4.80;;;5.30;99.90;;;;;;6180764;23;20385;-72
2022/12/21 01:52:25;;;;;;;6.00;4.20;;;5.30;99.90;;;;;;6180798;23;20736;-73
2022/12/21 01:54:57;;;;;;;8.33;4.47;;;5.20;99.90;;;;;;6180732;23;20415;-73
2022/12/21 01:57:25;;;;;;;8.93;5.60;;;5.20;99.90;;;;;;6181969;23;20859;-72
2022/12/21 01:59:56;;;;;;;6.40;4.23;;;5.20;99.90;;;;;;6180760;23;20447;-72
2022/12/21 02:02:28;;;;;;;7.63;4.70;;;5.20;99.90;;;;;;6181053;23;20399;-72
2022/12/21 02:04:56;;;;;;;6.00;4.23;;;5.10;99.90;;;;;;6180565;23;20397;-72
2022/12/21 02:07:24;;;;;;;5.13;4.37;;;5.00;99.90;;;;;;6180848;23;20404;-72
2022/12/21 02:09:53;;;;;;;6.20;4.43;;;5.00;99.90;;;;;;6180799;23;20439;-73
2022/12/21 02:12:22;;;;;;;7.60;5.17;;;4.90;99.90;;;;;;6180997;23;20764;-72
2022/12/21 02:14:49;;;;;;;6.87;4.77;;;4.90;99.90;;;;;;6180933;23;20404;-72
2022/12/21 02:17:23;;;;;;;5.30;4.63;;;5.00;99.90;;;;;;6180569;23;20902;-72
2022/12/21 02:20:23;;;;;;;5.90;4.47;;;4.80;99.90;;;;;;6181026;23;20428;-73
2022/12/21 02:23:25;;;;;;;8.37;4.77;;;5.00;99.90;;;;;;6169002;23;20932;-72
2022/12/21 02:26:12;;;;;;;8.50;4.70;;;4.90;99.90;;;;;;6178915;23;20661;-73
2022/12/21 02:29:09;;;;;;;8.90;4.70;;;4.80;99.90;;;;;;6179683;23;20438;-73
2022/12/21 02:31:46;;;;;;;4.77;4.17;;;4.70;99.90;;;;;;6180358;23;20427;-71
2022/12/21 02:34:22;;;;;;;4.20;3.43;;;4.70;99.90;;;;;;6180247;23;20893;-73
2022/12/21 02:36:57;;;;;;;4.37;3.43;;;4.70;99.90;;;;;;6180457;23;20415;-72
2022/12/21 02:39:34;;;;;;;6.57;4.30;;;4.70;99.90;;;;;;6180090;23;20428;-73
2022/12/21 02:42:06;;;;;;;4.80;4.40;;;4.70;99.90;;;;;;6180859;23;20397;-74
2022/12/21 02:44:44;;;;;;;3.83;3.50;;;4.80;99.90;;;;;;6180426;23;20395;-72
2022/12/21 02:47:19;;;;;;;3.47;3.17;;;4.90;99.90;;;;;;6180355;23;20412;-72
2022/12/21 02:49:51;;;;;;;4.97;4.07;;;4.80;99.90;;;;;;6180175;23;20388;-71
2022/12/21 02:52:22;;;;;;;4.20;3.73;;;4.80;99.90;;;;;;6180543;23;20746;-72
2022/12/21 02:54:53;;;;;;;7.97;4.13;;;4.80;99.90;;;;;;6180589;23;20393;-72
2022/12/21 02:57:31;;;;;;;3.97;3.37;;;4.70;99.90;;;;;;6180491;23;20392;-72
2022/12/21 02:59:58;;;;;;;4.00;2.93;;;4.70;99.90;;;;;;6180368;23;20454;-72
2022/12/21 03:03:47;;;;;;;4.17;3.77;;;4.80;99.90;;;;;;6180487;23;20471;-72
2022/12/21 03:05:58;;;;;;;4.73;3.43;;;4.80;99.90;;;;;;6179790;23;20777;-73
2022/12/21 03:08:35;;;;;;;4.40;3.80;;;4.70;99.90;;;;;;6180285;23;20720;-73
2022/12/21 03:11:04;;;;;;;4.80;4.27;;;4.70;99.90;;;;;;6179937;23;20504;-71
2022/12/21 03:13:41;;;;;;;6.10;3.93;;;4.70;99.90;;;;;;6179692;23;20408;-73
2022/12/21 03:16:14;;;;;;;4.20;3.80;;;4.70;99.90;;;;;;6180324;23;20399;-73
2022/12/21 03:18:50;;;;;;;4.53;3.70;;;4.70;99.90;;;;;;6179666;23;20461;-73
2022/12/21 03:21:21;;;;;;;4.83;3.00;;;4.70;99.90;;;;;;6180088;23;20390;-72
2022/12/21 03:23:56;;;;;;;3.70;3.40;;;4.70;99.90;;;;;;6179642;23;20389;-72
2022/12/21 03:26:28;;;;;;;5.70;3.77;;;4.70;99.90;;;;;;6180230;23;20462;-72
2022/12/21 03:28:56;;;;;;;3.77;3.47;;;4.70;99.90;;;;;;6180173;23;20496;-72
2022/12/21 03:31:28;;;;;;;3.80;3.43;;;4.80;99.90;;;;;;6180141;23;20408;-72
2022/12/21 03:34:01;;;;;;;4.20;3.80;;;4.70;99.90;;;;;;6179202;23;20392;-72
2022/12/21 03:36:32;;;;;;;4.50;3.93;;;4.70;99.90;;;;;;6180400;23;20387;-71
2022/12/21 03:39:04;;;;;;;4.60;3.63;;;4.70;99.90;;;;;;6180150;23;20430;-72
2022/12/21 03:41:34;;;;;;;4.27;3.53;;;4.80;99.90;;;;;;6180261;23;20392;-72
2022/12/21 03:44:04;;;;;;;4.33;3.73;;;4.80;99.90;;;;;;6180647;23;20728;-72
2022/12/21 03:46:35;;;;;;;4.40;3.60;;;4.90;99.90;;;;;;6180299;23;20412;-71
2022/12/21 03:49:08;;;;;;;5.93;4.63;;;5.00;99.90;;;;;;6180334;23;20381;-72
2022/12/21 03:51:41;;;;;;;6.67;4.37;;;5.00;99.90;;;;;;6179905;23;20385;-73
2022/12/21 03:54:15;;;;;;;5.80;4.37;;;5.20;99.90;;;;;;6180138;23;20392;-73
2022/12/21 03:56:42;;;;;;;5.30;4.10;;;5.10;99.90;;;;;;6180098;23;20411;-73
2022/12/21 03:59:12;;;;;;;6.50;4.17;;;5.00;99.90;;;;;;6179896;23;20444;-73
2022/12/21 04:01:46;;;;;;;6.00;4.20;;;5.00;99.90;;;;;;6181064;23;20412;-73
2022/12/21 04:04:21;;;;;;;7.40;4.37;;;5.00;99.90;;;;;;6181913;23;20393;-73
2022/12/21 04:06:51;;;;;;;6.17;4.23;;;5.00;99.90;;;;;;6181442;23;20434;-72
2022/12/21 04:09:18;;;;;;;6.00;3.93;;;5.00;99.90;;;;;;6181850;23;20427;-73
2022/12/21 04:14:29;;;;;;;5.40;4.20;;;4.90;99.90;;;;;;6182005;23;20937;-72
2022/12/21 04:16:56;;;;;;;6.17;4.50;;;5.00;99.90;;;;;;6182101;23;20408;-72
2022/12/21 04:30:29;;;;;;;5.07;4.50;;;4.80;99.90;;;;;;6181746;23;20431;-72
2022/12/21 04:32:56;;;;;;;10.07;5.17;;;4.80;99.90;;;;;;6181846;23;20756;-71
2022/12/21 04:35:24;;;;;;;5.20;3.87;;;4.70;99.90;;;;;;6181871;23;20752;-73
2022/12/21 04:37:50;;;;;;;6.10;3.80;;;4.70;99.90;;;;;;6181288;23;20408;-72
2022/12/21 04:40:17;;;;;;;5.20;4.00;;;4.70;99.90;;;;;;6181590;23;20432;-71
2022/12/21 04:42:43;;;;;;;5.77;4.53;;;4.80;99.90;;;;;;6181633;23;20173;-72
2022/12/21 04:45:11;;;;;;;4.23;3.83;;;4.90;99.90;;;;;;6181821;23;20412;-74
2022/12/21 04:47:37;;;;;;;5.57;4.70;;;4.90;99.90;;;;;;6181422;23;20784;-78
2022/12/21 04:50:05;;;;;;;7.23;4.67;;;4.90;99.90;;;;;;6181833;23;20407;-80
2022/12/21 04:52:33;;;;;;;8.63;5.70;;;4.90;99.90;;;;;;6181611;23;20408;-83
2022/12/21 04:55:00;;;;;;;7.30;4.70;;;4.80;99.90;;;;;;6182002;23;20414;-84
2022/12/21 04:57:27;;;;;;;5.77;5.03;;;4.80;99.90;;;;;;6182157;23;20415;-83
2022/12/21 04:59:54;;;;;;;6.43;4.50;;;4.70;99.90;;;;;;6183374;23;20773;-84
2022/12/21 05:02:21;;;;;;;7.27;5.77;;;4.70;99.90;;;;;;6181362;23;20933;-80
2022/12/21 05:04:47;;;;;;;6.77;5.17;;;4.70;99.90;;;;;;6181493;23;20408;-82
2022/12/21 05:07:14;;;;;;;4.30;3.90;;;4.80;99.90;;;;;;6180493;23;20412;-81
2022/12/21 05:09:42;;;;;;;7.77;4.00;;;4.80;99.90;;;;;;6180914;23;20424;-83
2022/12/21 05:12:09;;;;;;;4.70;3.90;;;4.80;99.90;;;;;;6181298;23;20410;-78
2022/12/21 05:14:36;;;;;;;6.53;4.37;;;4.80;99.90;;;;;;6180630;23;20411;-80
2022/12/21 05:17:02;;;;;;;5.30;4.80;;;4.80;99.90;;;;;;6181080;23;20404;-84
2022/12/21 05:19:29;;;;;;;6.50;5.03;;;4.90;99.90;;;;;;6181382;23;20448;-83
2022/12/21 05:21:56;;;;;;;9.47;5.53;;;4.90;99.90;;;;;;6180813;23;20412;-81
2022/12/21 05:24:23;;;;;;;5.47;4.97;;;4.90;99.90;;;;;;6181203;23;20408;-86
2022/12/21 05:26:51;;;;;;;4.60;4.20;;;5.00;99.90;;;;;;6181263;23;20408;-80
2022/12/21 05:29:17;;;;;;;4.77;4.33;;;5.00;99.90;;;;;;6180718;23;20523;-83
2022/12/21 05:31:44;;;;;;;6.20;5.20;;;4.90;99.90;;;;;;6181391;23;20404;-86
2022/12/21 05:34:11;;;;;;;9.17;5.37;;;4.90;99.90;;;;;;6181293;23;20611;-84
2022/12/21 05:36:38;;;;;;;4.47;4.13;;;4.90;99.90;;;;;;6180965;23;20415;-83
2022/12/21 05:39:04;;;;;;;8.13;5.90;;;4.90;99.90;;;;;;6180966;23;20419;-88
2022/12/21 05:41:31;;;;;;;7.13;4.60;;;4.80;99.90;;;;;;6181087;23;20414;-85
2022/12/21 05:43:59;;;;;;;6.50;4.70;;;4.70;99.90;;;;;;6180949;23;20419;-85
2022/12/21 05:46:26;;;;;;;6.03;4.03;;;4.70;99.90;;;;;;6180449;23;20401;-90
2022/12/21 05:48:55;;;;;;;6.60;4.70;;;4.70;99.90;;;;;;6181351;23;20412;-84
2022/12/21 05:51:22;;;;;;;6.60;4.90;;;4.60;99.90;;;;;;6180132;23;20791;-87
2022/12/21 05:53:48;;;;;;;11.03;5.00;;;4.60;99.90;;;;;;6178964;23;20416;-84
2022/12/21 05:56:15;;;;;;;6.63;4.53;;;4.60;99.90;;;;;;6178981;23;20422;-82
2022/12/21 05:58:42;;;;;;;5.07;3.90;;;4.60;99.90;;;;;;6179591;23;20414;-86
2022/12/21 06:01:11;;;;;;;6.60;4.70;;;4.60;99.90;;;;;;6178596;23;20456;-82
2022/12/21 06:03:39;;;;;;;5.93;4.87;;;4.60;99.90;;;;;;6179293;23;20400;-79
2022/12/21 06:06:08;;;;;;;5.97;5.30;;;4.50;99.90;;;;;;6179298;23;20928;-84
2022/12/21 06:08:35;;;;;;;5.13;4.53;;;4.60;99.90;;;;;;6179479;23;20752;-83
2022/12/21 06:11:07;;;;;;;6.27;5.20;;;4.60;99.90;;;;;;6179498;23;20434;-85
2022/12/21 06:13:34;;;;;;;8.00;5.60;;;4.50;99.90;;;;;;6179563;23;20412;-86
2022/12/21 06:16:06;;;;;;;8.70;7.70;;;4.50;99.90;;;;;;6181346;23;20403;-90
2022/12/21 06:18:35;;;;;;;7.07;5.23;;;5.30;99.90;;;;;;6182280;23;20415;-90
2022/12/21 06:21:02;;;;;;;8.97;5.40;;;5.40;99.90;;;;;;6181416;23;20957;-88
2022/12/21 06:23:29;;;;;;;6.17;4.93;;;5.20;99.90;;;;;;6180072;23;20439;-87
2022/12/21 06:25:57;;;;;;;7.03;5.27;;;4.70;99.90;;;;;;6179821;23;20399;-84
2022/12/21 06:28:25;;;;;;;5.93;4.70;;;4.60;99.90;;;;;;6179626;23;20455;-78
2022/12/21 06:30:52;;;;;;;5.30;4.80;;;4.60;99.90;;;;;;6180808;23;20451;-79
2022/12/21 06:33:19;;;;;;;6.67;5.70;;;4.60;99.90;;;;;;6179773;23;20399;-84
2022/12/21 06:35:48;;;;;;;7.00;4.93;;;4.50;99.90;;;;;;6180544;23;20412;-85
2022/12/21 06:38:15;;;;;;;6.50;4.83;;;4.50;99.90;;;;;;6179916;23;20476;-83
2022/12/21 06:40:41;;;;;;;4.93;4.23;;;4.40;99.90;;;;;;6179885;23;20512;-86
2022/12/21 06:43:08;;;;;;;7.77;4.30;;;4.40;99.90;;;;;;6180822;23;20408;-86
2022/12/21 06:45:35;;;;;;;5.30;4.50;;;4.50;99.90;;;;;;6180032;23;20411;-81
2022/12/21 06:48:02;;;;;;;9.27;6.90;;;4.50;99.90;;;;;;6180615;23;20970;-86
2022/12/21 06:50:28;;;;;;;7.60;4.93;;;4.50;99.90;;;;;;6179840;23;20396;-89
2022/12/21 06:52:56;;;;;;;8.60;5.23;;;4.50;99.90;;;;;;6177527;23;20428;-85
2022/12/21 06:55:24;;;;;;;6.80;5.57;;;4.50;99.90;;;;;;6178112;23;20412;-84
2022/12/21 06:57:50;;;;;;;10.70;5.30;;;4.50;99.90;;;;;;6178666;23;20408;-85
2022/12/21 07:00:18;;;;;;;8.43;5.37;;;4.60;99.90;;;;;;6178719;23;20447;-84
2022/12/21 07:02:45;;;;;;;7.50;5.33;;;4.50;99.90;;;;;;6178777;23;20803;-84
2022/12/21 07:05:11;;;;;;;6.50;5.13;;;4.50;99.90;;;;;;6179281;23;20414;-83
2022/12/21 07:07:38;;;;;;;8.90;6.20;;;4.50;99.90;;;;;;6179289;23;20416;-83
2022/12/21 07:10:08;;;;;;;6.07;4.90;;;4.50;99.90;;;;;;6179339;23;20519;-84
2022/12/21 07:12:35;;;;;;;6.30;5.63;;;4.50;99.90;;;;;;6178945;23;20891;-83
2022/12/21 07:15:01;;;;;;;8.60;5.60;;;4.60;99.90;;;;;;6179269;23;20410;-87
2022/12/21 07:17:29;;;;;;;8.17;5.50;;;4.50;99.90;;;;;;6178922;23;20408;-85
2022/12/21 07:19:55;;;;;;;6.80;5.37;;;4.40;99.90;;;;;;6179640;23;20470;-87
2022/12/21 07:22:22;;;;;;;10.90;5.97;;;4.50;99.90;;;;;;6175061;23;20419;-85
2022/12/21 07:24:49;;;;;;;6.57;4.97;;;4.40;99.90;;;;;;6178561;23;20405;-88
2022/12/21 07:27:17;;;;;;;5.07;4.60;;;4.60;99.90;;;;;;6178340;23;20430;-87
2022/12/21 07:29:44;;;;;;;6.60;5.10;;;4.50;99.90;;;;;;6178551;23;20400;-85
2022/12/21 07:32:11;;;;;;;4.60;3.83;;;4.60;99.90;;;;;;6178226;23;20416;-83
2022/12/21 07:34:38;;;;;;;7.63;5.07;;;4.70;99.90;;;;;;6179787;23;20741;-89
2022/12/21 07:37:04;;;;;;;8.63;4.87;;;4.80;99.90;;;;;;6179727;23;20412;-93
2022/12/21 07:39:31;;;;;;;11.70;5.07;;;4.90;99.90;;;;;;6178851;23;20771;-88
2022/12/21 07:41:58;;;;;;;4.57;4.17;;;5.10;99.90;;;;;;6179994;23;20456;-87
2022/12/21 07:44:26;;;;;;;6.40;4.07;;;5.20;99.90;;;;;;6178623;23;20747;-89
2022/12/21 07:46:53;;;;;;;6.33;4.53;;;5.30;99.90;;;;;;6178336;23;20439;-86
2022/12/21 07:49:20;;;;;;;8.23;3.93;;;5.40;99.90;;;;;;6178729;23;20393;-87
2022/12/21 07:51:47;;;;;;;4.63;4.10;;;5.40;99.90;;;;;;6179163;23;20408;-86
2022/12/21 07:54:14;;;;;;;8.93;3.63;;;5.50;99.90;;;;;;6178688;23;20440;-87
2022/12/21 07:56:41;;;;;;;5.87;3.37;;;5.60;99.90;;;;;;6179516;23;21085;-88
2022/12/21 07:59:08;;;;;;;5.23;3.60;;;5.70;99.90;;;;;;6178831;23;20422;-88
2022/12/21 08:01:36;;;;;;;5.87;4.40;;;5.70;99.90;;;;;;6178488;23;20981;-87
2022/12/21 08:04:03;;;;;;;4.53;3.87;;;5.80;99.90;;;;;;6178669;23;20790;-88
2022/12/21 08:06:30;;;;;;;4.03;3.30;;;5.80;99.90;;;;;;6178514;23;20450;-88
2022/12/21 08:08:57;;;;;;;7.00;4.13;;;5.80;99.90;;;;;;6179701;23;20708;-84
2022/12/21 08:11:24;;;;;;;4.40;3.60;;;5.90;99.90;;;;;;6179501;23;20776;-86
2022/12/21 08:13:51;;;;;;;7.93;3.70;;;6.10;99.90;;;;;;6180701;23;20503;-88
2022/12/21 08:16:19;;;;;;;3.87;3.17;;;6.10;99.90;;;;;;6184755;23;20414;-87
2022/12/21 08:22:07;;;;;;;4.70;3.37;;;6.20;99.90;;;;;;6182998;23;20444;-89
2022/12/21 08:24:34;;;;;;;5.27;3.30;;;6.30;99.90;;;;;;6179142;23;20420;-87
2022/12/21 08:27:00;;;;;;;6.83;3.77;;;6.30;99.90;;;;;;6179185;23;20431;-88
2022/12/21 08:29:27;;;;;;;4.33;3.40;;;6.40;99.90;;;;;;6179024;23;20777;-87
2022/12/21 08:31:54;;;;;;;8.17;4.10;;;6.50;99.90;;;;;;6183011;23;20414;-87
2022/12/21 08:34:21;;;;;;;6.00;4.07;;;6.40;99.90;;;;;;6178257;23;20491;-88
2022/12/21 08:36:50;;;;;;;5.90;3.77;;;6.50;99.90;;;;;;6178367;23;20412;-88
2022/12/21 08:39:18;;;;;;;6.30;3.40;;;6.50;99.90;;;;;;6178393;23;20416;-87
2022/12/21 08:41:45;;;;;;;5.80;3.80;;;6.60;99.90;;;;;;6179627;23;20711;-87
2022/12/21 08:44:15;;;;;;;5.83;3.33;;;6.70;99.90;;;;;;6192981;23;20415;-88
2022/12/21 08:46:42;;;;;;;7.77;3.93;;;6.70;99.90;;;;;;6202382;23;20405;-88
2022/12/21 08:49:09;;;;;;;7.03;4.30;;;6.80;99.90;;;;;;6206709;23;20399;-89
2022/12/21 08:51:37;;;;;;;9.03;3.77;;;6.80;99.90;;;;;;6206025;23;20403;-87
2022/12/21 08:54:04;;;;;;;6.70;3.67;;;6.80;99.90;;;;;;6187011;23;20454;-87
2022/12/21 08:56:36;;;;;;;6.33;3.90;;;6.70;99.90;;;;;;6188553;23;20410;-86
2022/12/21 08:59:04;;;;;;;5.43;4.63;;;6.80;99.90;;;;;;6181037;23;20972;-86
2022/12/21 09:01:32;;;;;;;10.40;6.70;;;6.70;99.90;;;;;;6180796;23;20436;-86
2022/12/21 09:03:59;;;;;;;10.03;6.00;;;6.70;99.90;;;;;;6180470;23;21195;-85
2022/12/21 09:06:26;;;;;;;9.57;5.83;;;6.70;99.90;;;;;;6180370;23;21013;-84
2022/12/21 09:08:53;;;;;;;6.37;5.50;;;6.50;99.90;;;;;;6179644;23;20422;-84
2022/12/21 09:11:22;;;;;;;9.43;5.50;;;6.40;99.90;;;;;;6180410;23;20412;-85
2022/12/21 09:13:52;;;;;;;8.60;5.40;;;6.40;99.90;;;;;;6180439;23;20463;-84
2022/12/21 09:16:22;;;;;;;8.80;5.27;;;6.30;99.90;;;;;;6181152;23;20393;-83
2022/12/21 09:18:51;;;;;;;8.87;6.00;;;6.30;99.90;;;;;;6180787;23;21041;-83
2022/12/21 09:21:19;;;;;;;10.93;6.13;;;6.30;99.90;;;;;;6181130;23;20468;-83
2022/12/21 09:23:47;;;;;;;6.80;6.20;;;6.30;99.90;;;;;;6180568;23;20504;-84
2022/12/21 09:26:14;;;;;;;8.37;6.03;;;6.30;99.90;;;;;;6180062;23;20418;-84
2022/12/21 09:31:23;;;;;;;8.23;6.20;;;6.40;99.90;;;;;;6180308;23;20408;-84
2022/12/21 09:33:50;;;;;;;9.23;6.17;;;6.50;99.90;;;;;;6180624;23;20415;-85
2022/12/21 09:36:19;;;;;;;12.13;7.13;;;6.60;99.90;;;;;;6180018;23;20520;-84
2022/12/21 09:38:45;;;;;;;8.80;5.00;;;6.70;99.90;;;;;;6180946;23;20442;-85
2022/12/21 09:41:41;;;;;;;10.70;6.30;;;6.80;99.90;;;;;;6180543;23;20451;-83
2022/12/21 09:44:22;;;;;;;6.60;5.63;;;6.90;99.90;;;;;;6178501;23;20414;-85
2022/12/21 09:46:54;;;;;;;8.50;7.13;;;7.00;99.90;;;;;;6181247;23;20479;-84
2022/12/21 09:49:23;;;;;;;6.00;5.23;;;7.00;99.90;;;;;;6181295;23;20401;-84
2022/12/21 09:51:58;;;;;;;8.27;5.90;;;7.10;99.90;;;;;;6180783;23;20399;-85
2022/12/21 09:54:35;;;;;;;11.37;5.73;;;7.10;99.90;;;;;;6181014;23;20387;-85
2022/12/21 09:57:01;;;;;;;8.67;4.83;;;7.20;99.90;;;;;;6180631;23;20693;-86
2022/12/21 09:59:28;;;;;;;4.63;4.10;;;7.30;99.90;;;;;;6180359;23;20408;-87
2022/12/21 10:02:05;;;;;;;8.57;5.20;;;7.40;99.90;;;;;;6187031;23;20506;-84
2022/12/21 10:04:44;;;;;;;6.53;4.67;;;7.50;99.90;;;;;;6180571;23;20400;-86
2022/12/21 10:07:27;;;;;;;5.17;4.17;;;7.30;99.90;;;;;;6180484;23;20872;-84
2022/12/21 10:10:07;;;;;;;8.30;4.70;;;7.50;99.90;;;;;;6180528;23;20922;-86
2022/12/21 10:12:42;;;;;;;5.33;3.80;;;7.60;99.90;;;;;;6180464;23;20499;-86
2022/12/21 10:15:21;;;;;;;4.27;3.27;;;7.70;99.90;;;;;;6180190;23;20728;-85
2022/12/21 10:18:01;;;;;;;8.50;3.27;;;7.80;99.90;;;;;;6180258;23;20617;-86
2022/12/21 10:20:44;;;;;;;6.00;3.60;;;7.90;99.90;;;;;;6181217;23;20403;-85
2022/12/21 10:23:20;;;;;;;3.83;3.10;;;7.80;99.90;;;;;;6181627;23;20389;-88
2022/12/21 10:25:50;;;;;;;5.30;3.20;;;7.90;99.90;;;;;;6182470;23;20400;-86
2022/12/21 10:28:33;;;;;;;4.70;3.30;;;7.90;99.90;;;;;;6180839;23;21035;-88
2022/12/21 10:31:04;;;;;;;7.17;4.97;;;7.90;99.90;;;;;;6181720;23;20897;-89
2022/12/21 10:33:36;;;;;;;6.87;3.30;;;8.10;99.90;;;;;;6186765;23;20389;-86
2022/12/21 10:36:05;;;;;;;4.80;3.40;;;8.30;99.90;;;;;;6196668;23;20399;-86
2022/12/21 10:38:35;;;;;;;5.57;3.60;;;8.40;99.90;;;;;;6192472;23;20483;-86
2022/12/21 10:41:08;;;;;;;6.43;3.47;;;8.30;99.90;;;;;;6181905;23;20451;-87
2022/12/21 10:43:40;;;;;;;3.43;2.97;;;8.40;99.90;;;;;;6180886;23;20388;-86
2022/12/21 10:46:07;;;;;;;4.90;4.30;;;8.50;99.90;;;;;;6180271;23;20906;-85
2022/12/21 10:48:35;;;;;;;3.80;2.97;;;8.60;99.90;;;;;;6180705;23;20514;-77
2022/12/21 10:51:14;;;;;;;3.87;2.83;;;8.50;99.90;;;;;;6179772;23;21005;-78
2022/12/21 10:53:56;;;;;;;10.17;3.77;;;8.50;99.90;;;;;;6179652;23;20392;-78
2022/12/21 10:56:25;;;;;;;2.93;2.63;;;8.50;99.90;;;;;;6179268;23;20897;-77
2022/12/21 10:58:53;;;;;;;5.03;3.03;;;8.50;99.90;;;;;;6179429;23;20412;-78
2022/12/21 11:01:24;;;;;;;3.50;3.30;;;8.40;99.90;;;;;;6178719;23;20945;-77
2022/12/21 11:04:07;;;;;;;4.33;3.10;;;8.30;99.90;;;;;;6178678;23;20407;-78
2022/12/21 11:06:35;;;;;;;4.40;2.90;;;8.30;99.90;;;;;;6179069;23;20419;-78
2022/12/21 11:09:01;;;;;;;5.63;3.40;;;8.40;99.90;;;;;;6179295;23;20430;-75
2022/12/21 11:11:31;;;;;;;3.90;2.93;;;8.20;99.90;;;;;;6178925;23;20408;-74
2022/12/21 11:14:00;;;;;;;3.33;2.90;;;8.30;99.90;;;;;;6178940;23;20416;-78
2022/12/21 11:16:29;;;;;;;4.13;2.73;;;8.30;99.90;;;;;;6179434;23;20408;-78
2022/12/21 11:19:01;;;;;;;4.20;2.80;;;8.40;99.90;;;;;;6178762;23;20408;-75
2022/12/21 11:21:35;;;;;;;5.30;2.97;;;8.30;99.90;;;;;;6179323;23;20424;-79
2022/12/21 11:24:07;;;;;;;5.73;3.43;;;8.40;99.90;;;;;;6179352;23;20396;-76
2022/12/21 11:26:38;;;;;;;8.33;5.43;;;8.50;99.90;;;;;;6179620;23;20483;-76
2022/12/21 11:29:07;;;;;;;4.87;3.47;;;8.40;99.90;;;;;;6179033;23;20447;-76
2022/12/21 11:31:36;;;;;;;5.90;3.97;;;8.50;99.90;;;;;;6179255;23;20404;-76
2022/12/21 11:34:05;;;;;;;7.90;3.50;;;8.40;99.90;;;;;;6179166;23;20411;-76
2022/12/21 11:36:31;;;;;;;7.47;4.60;;;8.50;99.90;;;;;;6179011;23;20728;-76
2022/12/21 11:38:58;;;;;;;7.17;3.77;;;8.50;99.90;;;;;;6178960;23;20439;-76
2022/12/21 11:41:28;;;;;;;6.37;4.73;;;8.40;99.90;;;;;;6178926;23;21080;-78
2022/12/21 11:43:56;;;;;;;7.03;4.67;;;8.30;99.90;;;;;;6179880;23;20487;-77
2022/12/21 11:46:47;;;;;;;7.63;4.60;;;8.20;99.90;;;;;;6179668;23;20420;-76
2022/12/21 11:49:47;;;;;;;7.93;4.10;;;8.20;99.90;;;;;;6177408;23;20408;-76
2022/12/21 11:52:24;;;;;;;6.17;5.53;;;8.10;99.90;;;;;;6172017;23;20948;-76
2022/12/21 11:55:01;;;;;;;6.43;5.33;;;8.00;99.90;;;;;;6180100;23;20410;-76
2022/12/21 11:57:39;;;;;;;6.50;5.30;;;8.00;99.90;;;;;;6180345;23;20403;-75
2022/12/21 12:00:09;;;;;;;8.73;6.23;;;8.00;99.90;;;;;;6179918;23;20451;-75
2022/12/21 12:03:13;;;;;;;8.77;6.13;;;8.00;99.90;;;;;;6179827;23;20447;-72
2022/12/21 12:06:01;;;;;;;10.83;6.00;;;8.00;99.90;;;;;;6180082;23;20399;-74
2022/12/21 12:08:44;;;;;;;8.77;5.37;;;8.00;99.90;;;;;;6178500;23;20392;-73
2022/12/21 12:11:28;;;;;;;10.63;5.93;;;8.00;99.90;;;;;;6178987;23;20732;-72
2022/12/21 12:14:10;;;;;;;8.60;6.00;;;8.10;99.90;;;;;;6179219;23;20388;-73
2022/12/21 12:16:51;;;;;;;12.10;6.53;;;8.00;99.90;;;;;;6181355;23;20406;-72
2022/12/21 12:19:29;;;;;;;11.40;7.80;;;8.10;99.90;;;;;;6179573;23;20397;-71
2022/12/21 12:22:11;;;;;;;6.67;6.00;;;8.10;99.90;;;;;;6178355;23;20433;-72
2022/12/21 12:25:03;;;;;;;12.50;6.10;;;8.10;99.90;;;;;;6184699;23;20398;-73
2022/12/21 12:27:48;;;;;;;15.20;7.50;;;8.10;99.90;;;;;;6181838;23;20536;-73
2022/12/21 12:30:20;;;;;;;6.33;4.30;;;8.00;99.90;;;;;;6180981;23;20470;-73
2022/12/21 12:33:00;;;;;;;7.90;4.93;;;8.30;99.90;;;;;;6181373;23;20400;-74
2022/12/21 12:35:47;;;;;;;4.33;3.67;;;8.30;99.90;;;;;;6180868;23;20416;-73
2022/12/21 12:38:24;;;;;;;5.20;3.90;;;8.50;99.90;;;;;;6180830;23;20392;-73
2022/12/21 12:41:06;;;;;;;4.80;3.20;;;8.40;99.90;;;;;;6180303;23;20885;-72
2022/12/21 12:43:46;;;;;;;5.47;3.40;;;8.60;99.90;;;;;;6180769;23;20523;-77
2022/12/21 12:46:20;;;;;;;4.07;3.20;;;8.70;99.90;;;;;;6181483;23;20483;-75
2022/12/21 12:48:56;;;;;;;3.53;2.90;;;8.60;99.90;;;;;;6180997;23;20398;-77
2022/12/21 12:51:27;;;;;;;6.57;3.27;;;8.60;99.90;;;;;;6180544;23;20418;-76
2022/12/21 12:54:01;;;;;;;3.20;2.87;;;8.60;99.90;;;;;;6181789;23;20400;-77
2022/12/21 12:56:37;;;;;;;4.20;3.30;;;8.70;99.90;;;;;;6180426;23;20395;-77
2022/12/21 12:59:14;;;;;;;4.80;3.30;;;8.70;99.90;;;;;;6180428;23;20392;-76
2022/12/21 13:01:48;;;;;;;3.50;3.30;;;8.70;99.90;;;;;;6180405;23;20439;-76
2022/12/21 13:04:42;;;;;;;6.83;2.70;;;8.80;99.90;;;;;;6180288;23;20402;-77
2022/12/21 13:07:16;;;;;;;3.53;3.03;;;8.80;99.90;;;;;;6180592;23;20410;-76
2022/12/21 13:09:57;;;;;;;3.03;2.40;;;8.80;99.90;;;;;;6180427;23;20878;-72
2022/12/21 13:12:32;;;;;;;5.70;2.63;;;8.70;99.90;;;;;;6179627;23;20883;-73
2022/12/21 13:15:07;;;;;;;7.97;3.43;;;8.70;99.90;;;;;;6180524;23;20394;-73
2022/12/21 13:17:39;;;;;;;6.53;3.00;;;8.80;99.90;;;;;;6180574;23;20400;-73
2022/12/21 13:20:12;;;;;;;4.60;3.70;;;8.80;99.90;;;;;;6180356;23;20396;-73
2022/12/21 13:22:40;;;;;;;3.53;2.40;;;8.80;99.90;;;;;;6180677;23;20425;-74
2022/12/21 13:25:16;;;;;;;2.80;2.60;;;8.80;99.90;;;;;;6179555;23;20499;-73
2022/12/21 13:27:44;;;;;;;3.13;2.40;;;8.80;99.90;;;;;;6179675;23;20522;-72
2022/12/21 13:30:16;;;;;;;6.17;2.50;;;8.80;99.90;;;;;;6179983;23;20443;-73
2022/12/21 13:32:46;;;;;;;2.30;1.93;;;8.80;99.90;;;;;;6179649;23;20405;-73
2022/12/21 13:35:22;;;;;;;7.83;2.60;;;8.80;99.90;;;;;;6179559;23;20399;-74